createdAt,value
2023-01-06T00:00:14.676Z,13.61
2023-01-06T00:01:17.212Z,13.56
2023-01-06T00:02:18.795Z,13.51
2023-01-06T00:03:20.375Z,13.54
2023-01-06T00:04:22.028Z,13.51
2023-01-06T00:05:23.957Z,13.58
2023-01-06T00:06:28.954Z,13.56
2023-01-06T00:07:30.436Z,13.51
2023-01-06T00:08:31.946Z,13.55
2023-01-06T00:09:34.713Z,13.55
2023-01-06T00:10:36.825Z,13.59
2023-01-06T00:11:38.346Z,13.64
2023-01-06T00:12:39.840Z,13.62
2023-01-06T00:13:41.349Z,13.62
2023-01-06T00:14:44.249Z,13.64
2023-01-06T00:15:45.808Z,13.60
2023-01-06T00:16:47.313Z,13.64
2023-01-06T00:17:48.855Z,13.68
2023-01-06T00:18:52.066Z,13.71
2023-01-06T00:19:53.658Z,13.70
2023-01-06T00:20:55.128Z,13.65
2023-01-06T00:21:56.692Z,13.65
2023-01-06T00:22:58.187Z,13.60
2023-01-06T00:23:59.679Z,13.61
2023-01-06T00:25:01.228Z,13.57
2023-01-06T00:26:03.174Z,13.58
2023-01-06T00:27:04.641Z,13.61
2023-01-06T00:28:06.145Z,13.62
2023-01-06T00:29:09.147Z,13.64
2023-01-06T00:30:10.968Z,13.68
2023-01-06T00:31:14.451Z,13.72
2023-01-06T00:32:16.051Z,13.72
2023-01-06T00:33:17.550Z,13.68
2023-01-06T00:34:19.011Z,13.68
2023-01-06T00:35:20.554Z,13.70
2023-01-06T00:36:22.113Z,13.75
2023-01-06T00:37:23.673Z,13.75
2023-01-06T00:38:26.096Z,13.75
2023-01-06T00:39:27.658Z,13.70
2023-01-06T00:40:29.164Z,13.68
2023-01-06T00:41:49.579Z,13.71
2023-01-06T00:42:51.406Z,13.74
2023-01-06T00:43:52.957Z,13.72
2023-01-06T00:44:54.463Z,13.76
2023-01-06T00:45:56.000Z,13.74
2023-01-06T00:46:57.620Z,13.69
2023-01-06T00:47:59.232Z,13.71
2023-01-06T00:49:05.852Z,13.64
2023-01-06T00:50:10.660Z,13.60
2023-01-06T00:51:14.030Z,13.65
2023-01-06T00:52:15.660Z,13.60
2023-01-06T00:53:17.334Z,13.64
2023-01-06T00:54:19.061Z,13.66
2023-01-06T00:55:20.792Z,13.68
2023-01-06T00:56:22.294Z,13.68
2023-01-06T00:57:23.824Z,13.63
2023-01-06T00:58:29.060Z,13.65
2023-01-06T00:59:30.620Z,13.70
2023-01-06T01:00:32.186Z,13.73
2023-01-06T01:01:34.621Z,13.70
2023-01-06T01:02:36.365Z,13.72
2023-01-06T01:03:38.278Z,13.74
2023-01-06T01:04:39.769Z,13.73
2023-01-06T01:05:41.243Z,13.78
2023-01-06T01:06:43.604Z,13.77
2023-01-06T01:07:45.791Z,13.73
2023-01-06T01:08:48.487Z,13.72
2023-01-06T01:09:49.981Z,13.62
2023-01-06T01:10:52.553Z,13.64
2023-01-06T01:12:12.904Z,13.68
2023-01-06T01:13:14.503Z,13.74
2023-01-06T01:14:16.750Z,13.79
2023-01-06T01:15:18.251Z,13.82
2023-01-06T01:16:19.871Z,13.81
2023-01-06T01:17:21.361Z,13.75
2023-01-06T01:18:22.900Z,13.80
2023-01-06T01:19:24.423Z,13.84
2023-01-06T01:20:25.959Z,13.86
2023-01-06T01:21:27.420Z,13.86
2023-01-06T01:22:29.367Z,13.89
2023-01-06T01:23:30.895Z,13.91
2023-01-06T01:24:32.419Z,13.93
2023-01-06T01:25:33.906Z,13.89
2023-01-06T01:26:35.569Z,13.85
2023-01-06T01:27:37.028Z,13.84
2023-01-06T01:28:38.513Z,13.79
2023-01-06T01:29:41.563Z,13.78
2023-01-06T01:30:43.075Z,13.77
2023-01-06T01:31:45.294Z,13.80
2023-01-06T01:32:47.506Z,13.73
2023-01-06T01:33:49.193Z,13.69
2023-01-06T01:34:50.669Z,13.69
2023-01-06T01:35:52.171Z,13.64
2023-01-06T01:36:53.999Z,13.64
2023-01-06T01:37:55.510Z,13.59
2023-01-06T01:38:57.438Z,13.58
2023-01-06T01:39:58.959Z,13.59
2023-01-06T01:41:00.494Z,13.60
2023-01-06T01:42:02.001Z,13.63
2023-01-06T01:43:04.327Z,13.69
2023-01-06T01:44:24.246Z,13.65
2023-01-06T01:45:26.611Z,13.71
2023-01-06T01:46:28.246Z,13.66
2023-01-06T01:47:34.862Z,13.61
2023-01-06T01:48:36.369Z,13.55
2023-01-06T01:49:39.057Z,13.57
2023-01-06T01:50:42.661Z,13.62
2023-01-06T01:51:45.034Z,13.67
2023-01-06T01:52:46.979Z,13.65
2023-01-06T01:53:49.733Z,13.59
2023-01-06T01:54:51.284Z,13.64
2023-01-06T01:55:53.256Z,13.63
2023-01-06T01:57:03.395Z,13.64
2023-01-06T01:58:06.843Z,13.58
2023-01-06T01:59:12.261Z,13.57
2023-01-06T02:00:14.035Z,13.61
2023-01-06T02:01:16.188Z,13.65
2023-01-06T02:02:17.896Z,13.70
2023-01-06T02:03:20.095Z,13.69
2023-01-06T02:04:21.944Z,13.66
2023-01-06T02:05:24.687Z,13.69
2023-01-06T02:06:26.490Z,13.73
2023-01-06T02:07:28.072Z,13.69
2023-01-06T02:08:39.037Z,13.68
2023-01-06T02:09:44.051Z,13.65
2023-01-06T02:10:45.547Z,13.65
2023-01-06T02:11:51.407Z,13.67
2023-01-06T02:12:56.221Z,13.73
2023-01-06T02:14:11.078Z,13.76
2023-01-06T02:15:18.708Z,13.77
2023-01-06T02:16:25.319Z,13.76
2023-01-06T02:17:29.408Z,13.78
2023-01-06T02:18:49.737Z,13.76
2023-01-06T02:19:54.281Z,13.73
2023-01-06T02:21:00.193Z,13.78
2023-01-06T02:22:20.389Z,13.80
2023-01-06T02:23:31.934Z,13.75
2023-01-06T02:24:42.656Z,13.58
2023-01-06T02:25:59.287Z,13.62
2023-01-06T02:27:03.927Z,13.66
2023-01-06T02:28:05.418Z,13.70
2023-01-06T02:29:25.921Z,13.70
2023-01-06T02:30:27.439Z,13.74
2023-01-06T02:31:29.554Z,13.64
2023-01-06T02:32:31.060Z,13.60
2023-01-06T02:33:35.882Z,13.65
2023-01-06T02:34:43.285Z,13.69
2023-01-06T02:35:44.846Z,13.72
2023-01-06T02:37:04.867Z,13.74
2023-01-06T02:38:21.471Z,13.73
2023-01-06T02:39:40.176Z,13.65
2023-01-06T02:40:42.063Z,13.67
2023-01-06T02:41:44.179Z,13.61
2023-01-06T02:43:21.519Z,13.61
2023-01-06T02:44:32.549Z,13.66
2023-01-06T02:45:42.773Z,13.61
2023-01-06T02:47:03.545Z,13.67
2023-01-06T02:48:07.711Z,13.70
2023-01-06T02:49:32.397Z,13.71
2023-01-06T02:50:36.745Z,13.45
2023-01-06T02:51:46.958Z,13.76
2023-01-06T02:52:54.819Z,13.79
2023-01-06T02:54:08.630Z,13.86
2023-01-06T02:55:18.005Z,13.86
2023-01-06T02:56:20.846Z,13.84
2023-01-06T02:57:40.610Z,13.83
2023-01-06T02:58:45.765Z,13.89
2023-01-06T02:59:49.717Z,13.88
2023-01-06T03:00:53.067Z,13.84
2023-01-06T03:01:54.706Z,13.81
2023-01-06T03:03:00.181Z,13.78
2023-01-06T03:04:02.539Z,13.80
2023-01-06T03:05:04.839Z,13.81
2023-01-06T03:06:08.737Z,13.80
2023-01-06T03:07:10.963Z,13.81
2023-01-06T03:08:15.457Z,13.80
2023-01-06T03:09:18.073Z,13.80
2023-01-06T03:10:20.228Z,13.76
2023-01-06T03:11:21.919Z,13.81
2023-01-06T03:12:32.207Z,13.80
2023-01-06T03:13:39.905Z,13.80
2023-01-06T03:14:43.006Z,13.78
2023-01-06T03:15:44.561Z,13.79
2023-01-06T03:16:46.117Z,13.82
2023-01-06T03:17:47.626Z,13.89
2023-01-06T03:18:49.499Z,13.91
2023-01-06T03:19:52.690Z,13.87
2023-01-06T03:20:54.860Z,13.86
2023-01-06T03:21:56.912Z,13.81
2023-01-06T03:22:58.432Z,13.84
2023-01-06T03:24:00.877Z,13.91
2023-01-06T03:25:03.001Z,13.96
2023-01-06T03:26:04.843Z,13.99
2023-01-06T03:27:06.472Z,13.98
2023-01-06T03:28:09.228Z,13.98
2023-01-06T03:29:11.230Z,13.95
2023-01-06T03:30:13.078Z,13.94
2023-01-06T03:31:22.739Z,13.97
2023-01-06T03:32:24.339Z,14.03
2023-01-06T03:33:27.124Z,14.03
2023-01-06T03:34:40.739Z,14.00
2023-01-06T03:35:51.706Z,13.99
2023-01-06T03:37:12.340Z,14.03
2023-01-06T03:38:15.472Z,14.00
2023-01-06T03:39:26.639Z,14.02
2023-01-06T03:40:33.934Z,14.09
2023-01-06T03:41:58.683Z,14.12
2023-01-06T03:43:16.127Z,14.16
2023-01-06T03:44:24.115Z,14.17
2023-01-06T03:45:25.647Z,14.17
2023-01-06T03:46:29.296Z,14.20
2023-01-06T03:47:42.254Z,14.19
2023-01-06T03:49:13.497Z,14.20
2023-01-06T03:50:22.135Z,14.17
2023-01-06T03:51:23.873Z,14.19
2023-01-06T03:52:27.026Z,14.19
2023-01-06T03:53:37.462Z,14.17
2023-01-06T03:54:57.930Z,14.17
2023-01-06T03:56:18.311Z,14.14
2023-01-06T03:57:24.393Z,14.16
2023-01-06T03:58:27.190Z,14.12
2023-01-06T03:59:28.872Z,14.12
2023-01-06T04:00:32.005Z,14.13
2023-01-06T04:01:38.123Z,14.14
2023-01-06T04:02:40.009Z,14.16
2023-01-06T04:03:46.393Z,14.14
2023-01-06T04:05:20.752Z,14.16
2023-01-06T04:06:23.559Z,14.05
2023-01-06T04:07:25.635Z,14.03
2023-01-06T04:08:27.165Z,14.03
2023-01-06T04:09:29.937Z,14.06
2023-01-06T04:10:31.483Z,14.06
2023-01-06T04:11:52.780Z,14.00
2023-01-06T04:12:54.727Z,13.98
2023-01-06T04:14:00.755Z,13.99
2023-01-06T04:15:03.081Z,14.02
2023-01-06T04:16:04.816Z,14.00
2023-01-06T04:17:06.901Z,13.98
2023-01-06T04:18:08.971Z,13.96
2023-01-06T04:19:13.272Z,13.91
2023-01-06T04:20:19.061Z,13.89
2023-01-06T04:21:21.198Z,13.91
2023-01-06T04:22:22.734Z,13.86
2023-01-06T04:23:24.212Z,13.80
2023-01-06T04:24:25.951Z,13.79
2023-01-06T04:25:27.451Z,13.80
2023-01-06T04:26:28.945Z,13.79
2023-01-06T04:27:30.487Z,13.79
2023-01-06T04:28:32.137Z,13.82
2023-01-06T04:29:33.794Z,13.80
2023-01-06T04:30:35.371Z,13.82
2023-01-06T04:31:37.551Z,13.80
2023-01-06T04:32:39.404Z,13.80
2023-01-06T04:33:42.501Z,13.77
2023-01-06T04:34:46.350Z,13.75
2023-01-06T04:35:48.147Z,13.79
2023-01-06T04:36:52.692Z,13.82
2023-01-06T04:37:55.033Z,13.83
2023-01-06T04:38:56.581Z,13.84
2023-01-06T04:39:58.092Z,13.80
2023-01-06T04:40:59.586Z,13.80
2023-01-06T04:42:01.100Z,13.82
2023-01-06T04:43:05.614Z,13.89
2023-01-06T04:44:07.177Z,13.91
2023-01-06T04:45:08.787Z,13.91
2023-01-06T04:46:10.408Z,13.88
2023-01-06T04:47:11.960Z,13.90
2023-01-06T04:48:13.814Z,13.91
2023-01-06T04:49:15.345Z,13.92
2023-01-06T04:50:16.820Z,13.93
2023-01-06T04:51:18.283Z,13.96
2023-01-06T04:52:19.800Z,13.95
2023-01-06T04:53:21.350Z,13.96
2023-01-06T04:54:22.859Z,13.97
2023-01-06T04:55:24.357Z,14.01
2023-01-06T04:56:26.871Z,13.99
2023-01-06T04:57:28.520Z,13.95
2023-01-06T04:58:30.081Z,13.95
2023-01-06T04:59:31.612Z,13.96
2023-01-06T05:00:33.139Z,14.00
2023-01-06T05:01:34.894Z,14.04
2023-01-06T05:02:36.407Z,14.08
2023-01-06T05:03:38.106Z,14.09
2023-01-06T05:04:47.387Z,14.13
2023-01-06T05:05:49.633Z,14.15
2023-01-06T05:06:51.431Z,14.17
2023-01-06T05:07:55.756Z,14.20
2023-01-06T05:08:57.231Z,14.21
2023-01-06T05:09:58.705Z,14.23
2023-01-06T05:11:00.797Z,14.22
2023-01-06T05:12:02.299Z,14.23
2023-01-06T05:13:03.781Z,14.21
2023-01-06T05:14:05.301Z,14.23
2023-01-06T05:15:07.117Z,14.27
2023-01-06T05:16:09.359Z,14.30
2023-01-06T05:17:10.941Z,14.30
2023-01-06T05:18:12.554Z,14.34
2023-01-06T05:19:14.012Z,14.35
2023-01-06T05:20:15.561Z,14.36
2023-01-06T05:21:17.095Z,14.36
2023-01-06T05:22:18.709Z,14.39
2023-01-06T05:23:20.406Z,14.40
2023-01-06T05:24:21.870Z,14.41
2023-01-06T05:25:23.385Z,14.42
2023-01-06T05:26:25.411Z,14.43
2023-01-06T05:27:27.080Z,14.43
2023-01-06T05:28:29.251Z,14.45
2023-01-06T05:29:30.789Z,14.46
2023-01-06T05:30:32.351Z,14.47
2023-01-06T05:31:33.849Z,14.43
2023-01-06T05:32:35.436Z,14.46
2023-01-06T05:33:36.993Z,14.45
2023-01-06T05:34:38.492Z,14.46
2023-01-06T05:35:39.955Z,14.45
2023-01-06T05:36:41.470Z,14.45
2023-01-06T05:37:43.027Z,14.43
2023-01-06T05:38:44.667Z,14.42
2023-01-06T05:39:46.149Z,14.42
2023-01-06T05:40:50.814Z,14.43
2023-01-06T05:41:52.352Z,14.42
2023-01-06T05:42:56.594Z,14.41
2023-01-06T05:43:58.137Z,14.42
2023-01-06T05:44:59.661Z,14.41
2023-01-06T05:46:04.489Z,14.41
2023-01-06T05:47:06.078Z,14.42
2023-01-06T05:48:07.564Z,14.45
2023-01-06T05:49:09.106Z,14.46
2023-01-06T05:50:10.674Z,14.46
2023-01-06T05:51:13.038Z,14.47
2023-01-06T05:52:14.510Z,14.46
2023-01-06T05:53:16.078Z,14.48
2023-01-06T05:54:17.589Z,14.48
2023-01-06T05:55:19.229Z,14.48
2023-01-06T05:56:20.957Z,14.50
2023-01-06T05:57:22.468Z,14.49
2023-01-06T05:58:23.976Z,14.50
2023-01-06T05:59:25.442Z,14.50
2023-01-06T06:00:26.966Z,14.48
2023-01-06T06:01:31.324Z,14.48
2023-01-06T06:02:32.938Z,14.48
2023-01-06T06:03:34.597Z,14.49
2023-01-06T06:04:36.103Z,14.48
2023-01-06T06:05:37.678Z,14.49
2023-01-06T06:06:39.162Z,14.49
2023-01-06T06:07:40.677Z,14.50
2023-01-06T06:08:42.190Z,14.50
2023-01-06T06:09:43.667Z,14.49
2023-01-06T06:10:45.297Z,14.48
2023-01-06T06:11:46.788Z,14.47
2023-01-06T06:12:48.341Z,14.46
2023-01-06T06:13:50.648Z,14.48
2023-01-06T06:14:52.187Z,14.46
2023-01-06T06:16:02.823Z,14.40
2023-01-06T06:17:04.398Z,14.37
2023-01-06T06:18:05.987Z,14.35
2023-01-06T06:19:07.461Z,14.35
2023-01-06T06:20:09.228Z,14.30
2023-01-06T06:21:14.118Z,14.27
2023-01-06T06:22:15.598Z,14.26
2023-01-06T06:23:17.109Z,14.22
2023-01-06T06:24:18.653Z,14.14
2023-01-06T06:25:20.134Z,14.12
2023-01-06T06:26:21.729Z,14.14
2023-01-06T06:27:23.218Z,14.17
2023-01-06T06:28:24.786Z,14.13
2023-01-06T06:29:26.441Z,14.17
2023-01-06T06:30:28.119Z,14.18
2023-01-06T06:31:29.745Z,14.19
2023-01-06T06:32:31.434Z,14.20
2023-01-06T06:33:33.085Z,14.20
2023-01-06T06:34:34.596Z,14.16
2023-01-06T06:35:36.141Z,14.14
2023-01-06T06:36:37.661Z,14.07
2023-01-06T06:37:39.166Z,14.04
2023-01-06T06:38:40.708Z,14.00
2023-01-06T06:39:42.207Z,13.99
2023-01-06T06:40:44.216Z,13.96
2023-01-06T06:41:46.026Z,13.96
2023-01-06T06:42:51.575Z,13.98
2023-01-06T06:43:53.167Z,13.99
2023-01-06T06:44:55.274Z,13.98
2023-01-06T06:45:56.941Z,13.95
2023-01-06T06:46:58.536Z,14.00
2023-01-06T06:48:00.434Z,13.98
2023-01-06T06:49:02.222Z,13.99
2023-01-06T06:50:04.714Z,14.01
2023-01-06T06:51:07.402Z,14.00
2023-01-06T06:52:08.989Z,13.98
2023-01-06T06:53:10.575Z,13.96
2023-01-06T06:54:12.171Z,13.96
2023-01-06T06:55:13.653Z,13.96
2023-01-06T06:56:15.385Z,13.97
2023-01-06T06:57:16.950Z,13.99
2023-01-06T06:58:18.530Z,13.96
2023-01-06T06:59:20.227Z,13.97
2023-01-06T07:00:21.717Z,13.98
2023-01-06T07:01:23.346Z,13.96
2023-01-06T07:02:25.041Z,13.96
2023-01-06T07:03:26.551Z,13.96
2023-01-06T07:04:28.220Z,13.78
2023-01-06T07:05:29.816Z,13.76
2023-01-06T07:06:31.566Z,13.76
2023-01-06T07:07:33.078Z,13.79
2023-01-06T07:08:34.645Z,13.76
2023-01-06T07:09:36.316Z,13.77
2023-01-06T07:10:37.865Z,13.76
2023-01-06T07:11:39.353Z,13.70
2023-01-06T07:12:40.932Z,13.72
2023-01-06T07:13:42.464Z,13.73
2023-01-06T07:14:43.936Z,13.76
2023-01-06T07:15:45.508Z,13.76
2023-01-06T07:16:47.028Z,13.77
2023-01-06T07:17:48.507Z,13.79
2023-01-06T07:18:50.110Z,13.81
2023-01-06T07:19:51.605Z,13.82
2023-01-06T07:20:53.993Z,13.81
2023-01-06T07:21:55.522Z,13.84
2023-01-06T07:22:57.103Z,13.82
2023-01-06T07:23:58.577Z,13.80
2023-01-06T07:25:00.093Z,13.78
2023-01-06T07:26:02.173Z,13.78
2023-01-06T07:27:03.673Z,13.75
2023-01-06T07:28:07.078Z,13.75
2023-01-06T07:29:08.647Z,13.77
2023-01-06T07:30:10.548Z,13.78
2023-01-06T07:31:12.181Z,13.77
2023-01-06T07:32:13.740Z,13.74
2023-01-06T07:33:15.237Z,13.74
2023-01-06T07:34:16.738Z,13.76
2023-01-06T07:35:18.624Z,13.76
2023-01-06T07:36:20.324Z,13.74
2023-01-06T07:37:21.855Z,13.66
2023-01-06T07:38:23.437Z,13.61
2023-01-06T07:39:24.922Z,13.60
2023-01-06T07:40:26.423Z,13.58
2023-01-06T07:41:28.087Z,13.57
2023-01-06T07:42:32.961Z,13.58
2023-01-06T07:43:34.440Z,13.54
2023-01-06T07:44:35.896Z,13.55
2023-01-06T07:45:37.390Z,13.58
2023-01-06T07:46:38.944Z,13.62
2023-01-06T07:47:40.410Z,13.60
2023-01-06T07:48:41.940Z,13.60
2023-01-06T07:49:43.495Z,13.59
2023-01-06T07:50:45.047Z,13.59
2023-01-06T07:51:46.537Z,13.57
2023-01-06T07:52:48.211Z,13.58
2023-01-06T07:53:49.825Z,13.55
2023-01-06T07:54:51.290Z,13.47
2023-01-06T07:55:53.120Z,13.50
2023-01-06T07:56:54.572Z,13.51
2023-01-06T07:57:56.159Z,13.42
2023-01-06T07:58:57.826Z,13.38
2023-01-06T07:59:59.298Z,13.36
2023-01-06T08:01:04.950Z,13.38
2023-01-06T08:02:06.988Z,13.39
2023-01-06T08:03:09.684Z,13.37
2023-01-06T08:04:11.245Z,13.38
2023-01-06T08:05:12.772Z,13.35
2023-01-06T08:06:14.312Z,13.37
2023-01-06T08:07:16.037Z,13.36
2023-01-06T08:08:17.603Z,13.40
2023-01-06T08:09:19.125Z,13.37
2023-01-06T08:10:20.613Z,13.32
2023-01-06T08:11:22.180Z,13.30
2023-01-06T08:12:23.705Z,13.35
2023-01-06T08:13:25.232Z,13.42
2023-01-06T08:14:26.775Z,13.48
2023-01-06T08:15:28.384Z,13.44
2023-01-06T08:16:29.915Z,13.47
2023-01-06T08:17:31.447Z,13.49
2023-01-06T08:18:33.060Z,13.55
2023-01-06T08:19:34.572Z,13.58
2023-01-06T08:20:36.107Z,13.55
2023-01-06T08:21:37.665Z,13.57
2023-01-06T08:22:39.147Z,13.58
2023-01-06T08:23:40.723Z,13.59
2023-01-06T08:24:42.309Z,13.61
2023-01-06T08:25:43.822Z,13.60
2023-01-06T08:26:45.301Z,13.63
2023-01-06T08:27:46.868Z,13.66
2023-01-06T08:28:48.431Z,13.64
2023-01-06T08:29:52.063Z,13.63
2023-01-06T08:30:55.198Z,13.61
2023-01-06T08:32:09.262Z,13.60
2023-01-06T08:33:11.712Z,13.57
2023-01-06T08:34:14.546Z,13.55
2023-01-06T08:35:16.137Z,13.58
2023-01-06T08:36:18.185Z,13.61
2023-01-06T08:37:19.654Z,13.64
2023-01-06T08:38:21.164Z,13.68
2023-01-06T08:39:22.675Z,13.73
2023-01-06T08:40:24.246Z,13.68
2023-01-06T08:41:25.861Z,13.70
2023-01-06T08:42:27.406Z,13.74
2023-01-06T08:43:29.791Z,13.75
2023-01-06T08:44:31.246Z,13.77
2023-01-06T08:45:32.820Z,13.79
2023-01-06T08:46:34.563Z,13.79
2023-01-06T08:47:36.457Z,13.82
2023-01-06T08:48:37.909Z,13.81
2023-01-06T08:49:39.382Z,13.72
2023-01-06T08:50:41.200Z,13.71
2023-01-06T08:51:42.697Z,13.68
2023-01-06T08:52:44.176Z,13.67
2023-01-06T08:53:45.720Z,13.69
2023-01-06T08:54:47.228Z,13.66
2023-01-06T08:55:48.824Z,13.63
2023-01-06T08:56:50.366Z,13.63
2023-01-06T08:57:54.573Z,13.68
2023-01-06T08:58:58.191Z,13.71
2023-01-06T08:59:59.703Z,13.76
2023-01-06T09:01:01.258Z,13.77
2023-01-06T09:02:02.834Z,13.79
2023-01-06T09:05:06.532Z,13.77
2023-01-06T09:06:08.104Z,13.73
2023-01-06T09:07:09.794Z,13.74
2023-01-06T09:08:11.272Z,13.74
2023-01-06T09:09:13.073Z,13.74
2023-01-06T09:10:14.531Z,13.75
2023-01-06T09:11:17.059Z,13.78
2023-01-06T09:12:18.541Z,13.86
2023-01-06T09:13:20.067Z,13.89
2023-01-06T09:14:21.627Z,13.95
2023-01-06T09:15:23.133Z,13.99
2023-01-06T09:16:24.646Z,14.04
2023-01-06T09:17:26.254Z,14.08
2023-01-06T09:18:27.886Z,14.10
2023-01-06T09:19:29.407Z,14.13
2023-01-06T09:20:31.005Z,14.14
2023-01-06T09:21:32.563Z,14.16
2023-01-06T09:22:34.100Z,14.18
2023-01-06T09:23:35.629Z,14.15
2023-01-06T09:24:37.177Z,14.18
2023-01-06T09:25:39.597Z,14.12
2023-01-06T09:26:41.157Z,14.12
2023-01-06T09:27:42.743Z,14.14
2023-01-06T09:28:44.214Z,14.15
2023-01-06T09:29:45.712Z,14.10
2023-01-06T09:30:48.567Z,14.11
2023-01-06T09:31:50.060Z,14.12
2023-01-06T09:32:51.605Z,14.12
2023-01-06T09:33:53.431Z,14.13
2023-01-06T09:34:54.893Z,14.14
2023-01-06T09:35:56.443Z,14.10
2023-01-06T09:36:57.967Z,13.90
2023-01-06T09:37:59.492Z,13.87
2023-01-06T09:39:01.036Z,13.90
2023-01-06T09:40:03.240Z,13.94
2023-01-06T09:41:04.910Z,13.95
2023-01-06T09:42:13.615Z,13.99
2023-01-06T09:43:15.149Z,14.01
2023-01-06T09:44:21.557Z,14.00
2023-01-06T09:45:40.140Z,14.10
2023-01-06T09:46:43.072Z,14.23
2023-01-06T09:47:47.438Z,14.29
2023-01-06T09:48:56.417Z,14.36
2023-01-06T09:50:12.541Z,14.45
2023-01-06T09:51:14.852Z,14.52
2023-01-06T09:52:39.474Z,14.53
2023-01-06T09:53:41.275Z,14.60
2023-01-06T09:55:03.286Z,14.65
2023-01-06T09:56:05.856Z,14.70
2023-01-06T09:57:11.689Z,14.72
2023-01-06T09:58:14.272Z,14.73
2023-01-06T09:59:23.517Z,14.77
2023-01-06T10:00:25.147Z,14.76
2023-01-06T10:01:31.317Z,14.78
2023-01-06T10:02:41.584Z,14.77
2023-01-06T10:03:46.136Z,14.78
2023-01-06T10:04:47.724Z,14.81
2023-01-06T10:06:07.782Z,14.81
2023-01-06T10:07:32.389Z,14.80
2023-01-06T10:08:52.532Z,14.80
2023-01-06T10:10:06.365Z,14.76
2023-01-06T10:11:07.924Z,14.73
2023-01-06T10:12:15.191Z,14.73
2023-01-06T10:13:29.860Z,14.71
2023-01-06T10:14:57.533Z,14.69
2023-01-06T10:16:07.961Z,14.68
2023-01-06T10:17:21.623Z,14.67
2023-01-06T10:18:23.098Z,14.54
2023-01-06T10:19:30.277Z,14.60
2023-01-06T10:20:32.128Z,14.61
2023-01-06T10:21:44.931Z,14.62
2023-01-06T10:22:54.985Z,14.57
2023-01-06T10:24:15.486Z,14.59
2023-01-06T10:25:27.684Z,14.61
2023-01-06T10:26:29.907Z,14.62
2023-01-06T10:27:39.749Z,14.64
2023-01-06T10:28:44.651Z,14.66
2023-01-06T10:29:46.176Z,14.64
2023-01-06T10:30:48.167Z,14.60
2023-01-06T10:31:49.768Z,14.62
2023-01-06T10:32:51.325Z,14.65
2023-01-06T10:33:53.529Z,14.64
2023-01-06T10:34:55.105Z,14.65
2023-01-06T10:35:56.832Z,14.67
2023-01-06T10:37:10.393Z,14.70
2023-01-06T10:38:11.879Z,14.71
2023-01-06T10:39:13.917Z,14.71
2023-01-06T10:40:19.645Z,14.72
2023-01-06T10:41:21.221Z,14.72
2023-01-06T10:42:41.466Z,14.75
2023-01-06T10:43:43.002Z,14.74
2023-01-06T10:44:44.487Z,14.75
2023-01-06T10:45:46.596Z,14.75
2023-01-06T10:46:50.083Z,14.74
2023-01-06T10:47:52.250Z,14.75
2023-01-06T10:48:53.787Z,14.72
2023-01-06T10:49:55.256Z,14.72
2023-01-06T10:50:57.869Z,14.70
2023-01-06T10:51:59.666Z,14.71
2023-01-06T10:53:01.159Z,14.73
2023-01-06T10:54:04.898Z,14.74
2023-01-06T10:55:06.599Z,14.70
2023-01-06T10:56:08.768Z,14.70
2023-01-06T10:57:15.713Z,14.72
2023-01-06T10:58:22.632Z,14.73
2023-01-06T10:59:24.177Z,14.74
2023-01-06T11:00:25.901Z,14.75
2023-01-06T11:01:27.785Z,14.73
2023-01-06T11:02:29.515Z,14.70
2023-01-06T11:03:34.247Z,14.71
2023-01-06T11:04:37.157Z,14.72
2023-01-06T11:05:38.724Z,14.75
2023-01-06T11:06:43.455Z,14.76
2023-01-06T11:07:45.792Z,14.71
2023-01-06T11:08:47.304Z,14.69
2023-01-06T11:09:50.001Z,14.66
2023-01-06T11:10:52.045Z,14.66
2023-01-06T11:11:53.679Z,14.70
2023-01-06T11:12:55.779Z,14.66
2023-01-06T11:13:58.011Z,14.70
2023-01-06T11:14:59.733Z,14.78
2023-01-06T11:16:39.889Z,14.79
2023-01-06T11:17:41.497Z,14.88
2023-01-06T11:18:42.984Z,14.92
2023-01-06T11:19:44.822Z,15.00
2023-01-06T11:20:47.395Z,15.07
2023-01-06T11:21:48.918Z,15.17
2023-01-06T11:22:50.447Z,15.20
2023-01-06T11:23:51.952Z,15.27
2023-01-06T11:24:53.962Z,15.35
2023-01-06T11:26:04.345Z,15.37
2023-01-06T11:27:15.144Z,15.43
2023-01-06T11:28:16.668Z,15.45
2023-01-06T11:29:19.188Z,15.49
2023-01-06T11:30:21.551Z,15.50
2023-01-06T11:31:25.803Z,15.51
2023-01-06T11:32:28.085Z,15.57
2023-01-06T11:33:30.194Z,15.64
2023-01-06T11:34:31.753Z,15.70
2023-01-06T11:35:33.375Z,15.73
2023-01-06T11:36:34.833Z,15.70
2023-01-06T11:37:39.685Z,15.70
2023-01-06T11:38:45.567Z,15.75
2023-01-06T11:39:49.203Z,15.79
2023-01-06T11:40:57.695Z,15.85
2023-01-06T11:42:03.115Z,15.84
2023-01-06T11:43:23.550Z,15.91
2023-01-06T11:44:33.397Z,15.97
2023-01-06T11:45:35.509Z,16.00
2023-01-06T11:46:37.180Z,15.92
2023-01-06T11:47:38.762Z,15.94
2023-01-06T11:48:41.866Z,15.94
2023-01-06T11:49:46.384Z,15.88
2023-01-06T11:50:54.382Z,15.86
2023-01-06T11:51:59.286Z,15.90
2023-01-06T11:53:04.550Z,15.95
2023-01-06T11:54:16.429Z,15.94
2023-01-06T11:55:21.197Z,15.93
2023-01-06T11:56:22.778Z,15.98
2023-01-06T11:57:29.454Z,15.98
2023-01-06T11:58:30.919Z,15.99
2023-01-06T11:59:44.224Z,15.98
2023-01-06T12:00:51.847Z,15.89
2023-01-06T12:01:55.618Z,15.88
2023-01-06T12:03:15.431Z,15.91
2023-01-06T12:04:19.814Z,15.95
2023-01-06T12:05:24.326Z,16.00
2023-01-06T12:06:38.304Z,16.02
2023-01-06T12:07:47.042Z,16.04
2023-01-06T12:08:59.623Z,15.98
2023-01-06T12:10:03.943Z,15.97
2023-01-06T12:11:15.637Z,15.91
2023-01-06T12:12:21.412Z,15.82
2023-01-06T12:13:23.764Z,15.74
2023-01-06T12:14:29.483Z,15.73
2023-01-06T12:15:31.514Z,15.76
2023-01-06T12:16:37.377Z,15.77
2023-01-06T12:17:50.866Z,15.74
2023-01-06T12:18:52.437Z,15.81
2023-01-06T12:19:53.904Z,15.83
2023-01-06T12:20:55.506Z,15.85
2023-01-06T12:21:57.038Z,15.87
2023-01-06T12:23:05.764Z,15.90
2023-01-06T12:24:07.429Z,15.91
2023-01-06T12:25:19.382Z,15.91
2023-01-06T12:26:23.802Z,15.94
2023-01-06T12:27:35.417Z,15.97
2023-01-06T12:28:38.120Z,16.01
2023-01-06T12:29:39.672Z,15.96
2023-01-06T12:30:51.253Z,15.99
2023-01-06T12:31:57.961Z,16.04
2023-01-06T12:33:11.343Z,16.06
2023-01-06T12:34:32.924Z,16.07
2023-01-06T12:35:34.375Z,16.10
2023-01-06T12:36:52.228Z,15.99
2023-01-06T12:37:57.842Z,16.08
2023-01-06T12:39:01.941Z,16.13
2023-01-06T12:40:09.219Z,16.16
2023-01-06T12:41:17.475Z,16.17
2023-01-06T12:42:18.991Z,16.18
2023-01-06T12:43:22.425Z,16.16
2023-01-06T12:44:23.880Z,16.18
2023-01-06T12:45:49.772Z,16.19
2023-01-06T12:47:00.685Z,16.23
2023-01-06T12:48:03.582Z,16.25
2023-01-06T12:49:06.066Z,16.23
2023-01-06T12:50:07.547Z,16.27
2023-01-06T12:51:16.907Z,16.32
2023-01-06T12:52:19.850Z,16.34
2023-01-06T12:53:24.500Z,16.35
2023-01-06T12:54:26.018Z,16.34
2023-01-06T12:55:47.798Z,16.35
2023-01-06T12:57:08.101Z,16.39
2023-01-06T12:58:25.016Z,16.44
2023-01-06T12:59:32.499Z,16.44
2023-01-06T13:00:57.319Z,16.36
2023-01-06T13:02:25.030Z,16.39
2023-01-06T13:03:45.036Z,16.44
2023-01-06T13:04:55.475Z,16.39
2023-01-06T13:05:59.892Z,16.40
2023-01-06T13:07:01.369Z,16.38
2023-01-06T13:08:07.717Z,16.41
2023-01-06T13:09:14.863Z,16.45
2023-01-06T13:10:27.074Z,16.47
2023-01-06T13:11:28.605Z,16.44
2023-01-06T13:12:36.390Z,16.45
2023-01-06T13:13:49.847Z,16.46
2023-01-06T13:14:56.678Z,16.46
2023-01-06T13:15:59.812Z,16.47
2023-01-06T13:17:08.085Z,16.45
2023-01-06T13:18:20.528Z,16.43
2023-01-06T13:19:27.845Z,16.44
2023-01-06T13:20:45.988Z,16.48
2023-01-06T13:21:48.010Z,16.49
2023-01-06T13:22:49.511Z,16.51
2023-01-06T13:23:51.025Z,16.49
2023-01-06T13:24:52.571Z,16.52
2023-01-06T13:25:57.082Z,16.54
2023-01-06T13:27:16.931Z,16.52
2023-01-06T13:28:24.682Z,16.51
2023-01-06T13:29:38.487Z,16.45
2023-01-06T13:30:40.024Z,16.48
2023-01-06T13:31:45.715Z,16.46
2023-01-06T13:32:59.072Z,16.48
2023-01-06T13:34:16.578Z,16.51
2023-01-06T13:35:24.463Z,16.33
2023-01-06T13:36:44.725Z,16.53
2023-01-06T13:37:52.088Z,16.57
2023-01-06T13:38:53.630Z,16.55
2023-01-06T13:39:55.085Z,16.54
2023-01-06T13:40:57.952Z,16.49
2023-01-06T13:42:00.224Z,16.47
2023-01-06T13:43:24.555Z,16.47
2023-01-06T13:44:27.533Z,16.43
2023-01-06T13:45:32.710Z,16.43
2023-01-06T13:46:34.190Z,16.37
2023-01-06T13:47:35.694Z,16.36
2023-01-06T13:48:40.035Z,16.36
2023-01-06T13:49:41.658Z,16.37